sensor_id;sensor_type;location;lat;lon;timestamp;pressure;altitude;pressure_sealevel;temperature;humidity
59063;BME280;44851;45.648;9.004;2023-02-03T00:00:36;99772.72;;;7.50;37.83
59063;BME280;44851;45.648;9.004;2023-02-03T00:03:01;99771.88;;;7.50;37.35
59063;BME280;44851;45.648;9.004;2023-02-03T00:05:28;99769.00;;;7.54;37.17
59063;BME280;44851;45.648;9.004;2023-02-03T00:07:53;99761.31;;;7.53;37.76
59063;BME280;44851;45.648;9.004;2023-02-03T00:10:19;99772.94;;;7.47;38.01
59063;BME280;44851;45.648;9.004;2023-02-03T00:12:50;99772.81;;;7.48;37.65
59063;BME280;44851;45.648;9.004;2023-02-03T00:15:20;99768.00;;;7.30;38.14
59063;BME280;44851;45.648;9.004;2023-02-03T00:17:47;99767.09;;;7.31;38.70
59063;BME280;44851;45.648;9.004;2023-02-03T00:20:12;99767.09;;;7.31;38.41
59063;BME280;44851;45.648;9.004;2023-02-03T00:22:38;99770.94;;;7.38;38.07
59063;BME280;44851;45.648;9.004;2023-02-03T00:25:04;99775.97;;;7.27;38.70
59063;BME280;44851;45.648;9.004;2023-02-03T00:27:31;99771.63;;;7.27;38.37
59063;BME280;44851;45.648;9.004;2023-02-03T00:29:56;99769.72;;;7.16;39.05
59063;BME280;44851;45.648;9.004;2023-02-03T00:32:22;99769.22;;;7.24;38.63
59063;BME280;44851;45.648;9.004;2023-02-03T00:34:47;99767.44;;;7.12;38.74
59063;BME280;44851;45.648;9.004;2023-02-03T00:37:12;99759.94;;;7.07;38.94
59063;BME280;44851;45.648;9.004;2023-02-03T00:39:38;99765.09;;;6.94;38.93
59063;BME280;44851;45.648;9.004;2023-02-03T00:42:04;99762.13;;;6.86;39.54
59063;BME280;44851;45.648;9.004;2023-02-03T00:44:30;99766.84;;;6.94;39.03
59063;BME280;44851;45.648;9.004;2023-02-03T00:46:56;99764.94;;;7.10;38.45
59063;BME280;44851;45.648;9.004;2023-02-03T00:49:21;99765.63;;;7.00;38.85
59063;BME280;44851;45.648;9.004;2023-02-03T00:51:46;99759.06;;;6.94;38.98
59063;BME280;44851;45.648;9.004;2023-02-03T00:54:12;99754.50;;;6.98;39.08
59063;BME280;44851;45.648;9.004;2023-02-03T00:56:38;99758.69;;;7.00;39.03
59063;BME280;44851;45.648;9.004;2023-02-03T00:59:04;99763.63;;;6.90;39.10
59063;BME280;44851;45.648;9.004;2023-02-03T01:01:29;99759.53;;;6.86;39.35
59063;BME280;44851;45.648;9.004;2023-02-03T01:03:55;99760.69;;;6.82;39.14
59063;BME280;44851;45.648;9.004;2023-02-03T01:06:21;99763.06;;;6.85;38.89
59063;BME280;44851;45.648;9.004;2023-02-03T01:08:47;99762.28;;;6.71;38.83
59063;BME280;44851;45.648;9.004;2023-02-03T01:11:15;99768.34;;;6.84;38.99
59063;BME280;44851;45.648;9.004;2023-02-03T01:13:41;99775.03;;;6.74;39.02
59063;BME280;44851;45.648;9.004;2023-02-03T01:16:08;99778.34;;;6.76;39.08
59063;BME280;44851;45.648;9.004;2023-02-03T01:18:34;99779.16;;;6.90;38.63
59063;BME280;44851;45.648;9.004;2023-02-03T01:21:11;99784.44;;;6.89;38.10
59063;BME280;44851;45.648;9.004;2023-02-03T01:23:37;99782.03;;;6.86;38.50
59063;BME280;44851;45.648;9.004;2023-02-03T01:26:05;99782.25;;;6.83;37.91
59063;BME280;44851;45.648;9.004;2023-02-03T01:28:31;99777.91;;;6.83;38.46
59063;BME280;44851;45.648;9.004;2023-02-03T01:30:57;99789.19;;;6.82;38.67
59063;BME280;44851;45.648;9.004;2023-02-03T01:33:22;99782.44;;;6.80;39.32
59063;BME280;44851;45.648;9.004;2023-02-03T01:35:48;99784.47;;;6.75;39.73
59063;BME280;44851;45.648;9.004;2023-02-03T01:38:13;99786.72;;;6.66;39.65
59063;BME280;44851;45.648;9.004;2023-02-03T01:40:44;99787.06;;;6.60;39.85
59063;BME280;44851;45.648;9.004;2023-02-03T01:43:10;99771.53;;;6.60;39.73
59063;BME280;44851;45.648;9.004;2023-02-03T01:45:36;99776.00;;;6.44;39.54
59063;BME280;44851;45.648;9.004;2023-02-03T01:48:03;99777.88;;;6.42;39.43
59063;BME280;44851;45.648;9.004;2023-02-03T01:50:30;99779.13;;;6.49;39.31
59063;BME280;44851;45.648;9.004;2023-02-03T01:53:06;99779.72;;;6.40;39.19
59063;BME280;44851;45.648;9.004;2023-02-03T01:55:44;99771.19;;;6.38;38.68
59063;BME280;44851;45.648;9.004;2023-02-03T01:58:16;99766.84;;;6.38;39.14
59063;BME280;44851;45.648;9.004;2023-02-03T02:00:45;99771.41;;;6.35;39.50
59063;BME280;44851;45.648;9.004;2023-02-03T02:03:12;99757.97;;;6.28;40.15
59063;BME280;44851;45.648;9.004;2023-02-03T02:05:42;99757.63;;;6.20;39.35
59063;BME280;44851;45.648;9.004;2023-02-03T02:08:11;99753.56;;;6.16;39.37
59063;BME280;44851;45.648;9.004;2023-02-03T02:10:38;99748.84;;;6.23;39.18
59063;BME280;44851;45.648;9.004;2023-02-03T02:13:04;99753.28;;;6.21;39.15
59063;BME280;44851;45.648;9.004;2023-02-03T02:15:57;99751.25;;;6.26;38.57
59063;BME280;44851;45.648;9.004;2023-02-03T02:21:12;99760.50;;;6.15;38.84
59063;BME280;44851;45.648;9.004;2023-02-03T02:31:53;99748.94;;;6.21;37.26
59063;BME280;44851;45.648;9.004;2023-02-03T02:37:43;99747.38;;;6.19;37.31
59063;BME280;44851;45.648;9.004;2023-02-03T02:43:20;99746.00;;;6.13;37.02
59063;BME280;44851;45.648;9.004;2023-02-03T02:45:53;99737.03;;;6.19;37.17
59063;BME280;44851;45.648;9.004;2023-02-03T02:48:42;99741.44;;;6.16;36.58
59063;BME280;44851;45.648;9.004;2023-02-03T02:51:11;99742.75;;;6.24;36.57
59063;BME280;44851;45.648;9.004;2023-02-03T02:53:55;99748.56;;;6.27;36.33
59063;BME280;44851;45.648;9.004;2023-02-03T02:56:24;99743.66;;;6.37;36.69
59063;BME280;44851;45.648;9.004;2023-02-03T02:58:51;99739.69;;;6.31;36.52
59063;BME280;44851;45.648;9.004;2023-02-03T03:01:17;99741.53;;;6.29;36.85
59063;BME280;44851;45.648;9.004;2023-02-03T03:03:43;99741.06;;;6.23;37.37
59063;BME280;44851;45.648;9.004;2023-02-03T03:06:23;99743.31;;;6.14;36.56
59063;BME280;44851;45.648;9.004;2023-02-03T03:09:11;99741.66;;;6.13;36.55
59063;BME280;44851;45.648;9.004;2023-02-03T03:11:44;99743.47;;;6.11;37.32
59063;BME280;44851;45.648;9.004;2023-02-03T03:14:15;99738.50;;;6.08;37.26
59063;BME280;44851;45.648;9.004;2023-02-03T03:16:47;99747.16;;;6.07;37.25
59063;BME280;44851;45.648;9.004;2023-02-03T03:19:19;99753.94;;;6.10;37.75
59063;BME280;44851;45.648;9.004;2023-02-03T03:21:52;99752.16;;;6.10;37.17
59063;BME280;44851;45.648;9.004;2023-02-03T03:24:26;99761.59;;;6.11;36.34
59063;BME280;44851;45.648;9.004;2023-02-03T03:27:01;99765.09;;;5.96;37.20
59063;BME280;44851;45.648;9.004;2023-02-03T03:29:34;99774.91;;;6.05;36.95
59063;BME280;44851;45.648;9.004;2023-02-03T03:32:02;99773.50;;;6.00;37.85
59063;BME280;44851;45.648;9.004;2023-02-03T03:34:28;99780.91;;;5.92;38.19
59063;BME280;44851;45.648;9.004;2023-02-03T03:44:48;99773.69;;;6.11;36.46
59063;BME280;44851;45.648;9.004;2023-02-03T03:47:23;99779.53;;;6.14;36.91
59063;BME280;44851;45.648;9.004;2023-02-03T03:49:52;99781.84;;;6.19;36.16
59063;BME280;44851;45.648;9.004;2023-02-03T03:52:22;99781.00;;;6.33;35.14
59063;BME280;44851;45.648;9.004;2023-02-03T03:54:50;99790.81;;;6.28;36.37
59063;BME280;44851;45.648;9.004;2023-02-03T03:57:24;99795.25;;;6.26;35.36
59063;BME280;44851;45.648;9.004;2023-02-03T03:59:53;99792.84;;;6.23;36.35
59063;BME280;44851;45.648;9.004;2023-02-03T04:02:20;99789.34;;;6.24;36.24
59063;BME280;44851;45.648;9.004;2023-02-03T04:04:47;99794.53;;;6.24;35.47
59063;BME280;44851;45.648;9.004;2023-02-03T04:07:14;99783.97;;;6.27;35.83
59063;BME280;44851;45.648;9.004;2023-02-03T04:09:39;99796.72;;;6.15;36.22
59063;BME280;44851;45.648;9.004;2023-02-03T04:12:12;99789.88;;;6.29;35.40
59063;BME280;44851;45.648;9.004;2023-02-03T04:14:40;99783.41;;;6.36;35.27
59063;BME280;44851;45.648;9.004;2023-02-03T04:17:06;99786.19;;;6.47;34.92
59063;BME280;44851;45.648;9.004;2023-02-03T04:19:32;99785.47;;;6.45;35.17
59063;BME280;44851;45.648;9.004;2023-02-03T04:21:58;99778.31;;;6.49;34.92
59063;BME280;44851;45.648;9.004;2023-02-03T04:24:23;99785.63;;;6.42;35.50
59063;BME280;44851;45.648;9.004;2023-02-03T04:26:48;99788.59;;;6.36;35.61
59063;BME280;44851;45.648;9.004;2023-02-03T04:29:14;99784.97;;;6.38;35.62
59063;BME280;44851;45.648;9.004;2023-02-03T04:31:39;99780.06;;;6.34;35.97
59063;BME280;44851;45.648;9.004;2023-02-03T04:34:05;99786.75;;;6.09;37.17
59063;BME280;44851;45.648;9.004;2023-02-03T04:36:30;99776.19;;;6.12;36.92
59063;BME280;44851;45.648;9.004;2023-02-03T04:38:56;99778.41;;;6.04;36.32
59063;BME280;44851;45.648;9.004;2023-02-03T04:41:21;99774.63;;;5.96;36.54
59063;BME280;44851;45.648;9.004;2023-02-03T04:43:47;99774.91;;;6.05;36.65
59063;BME280;44851;45.648;9.004;2023-02-03T04:46:12;99768.06;;;6.04;36.74
59063;BME280;44851;45.648;9.004;2023-02-03T04:48:38;99764.25;;;5.96;37.21
59063;BME280;44851;45.648;9.004;2023-02-03T04:51:05;99761.97;;;6.05;38.46
59063;BME280;44851;45.648;9.004;2023-02-03T04:53:31;99774.00;;;5.92;37.46
59063;BME280;44851;45.648;9.004;2023-02-03T04:55:58;99777.06;;;5.83;37.27
59063;BME280;44851;45.648;9.004;2023-02-03T04:58:23;99778.44;;;5.74;38.79
59063;BME280;44851;45.648;9.004;2023-02-03T05:00:51;99776.50;;;5.78;39.23
59063;BME280;44851;45.648;9.004;2023-02-03T05:03:17;99771.28;;;5.49;39.99
59063;BME280;44851;45.648;9.004;2023-02-03T05:05:42;99770.38;;;5.64;40.44
59063;BME280;44851;45.648;9.004;2023-02-03T05:08:08;99771.59;;;5.73;40.75
59063;BME280;44851;45.648;9.004;2023-02-03T05:10:33;99767.97;;;5.61;40.41
59063;BME280;44851;45.648;9.004;2023-02-03T05:12:59;99776.09;;;5.55;41.11
59063;BME280;44851;45.648;9.004;2023-02-03T05:15:24;99775.22;;;5.41;40.86
59063;BME280;44851;45.648;9.004;2023-02-03T05:17:54;99773.47;;;5.41;40.63
59063;BME280;44851;45.648;9.004;2023-02-03T05:20:20;99774.19;;;5.43;41.36
59063;BME280;44851;45.648;9.004;2023-02-03T05:22:45;99767.97;;;5.31;40.71
59063;BME280;44851;45.648;9.004;2023-02-03T05:25:11;99768.59;;;5.21;40.82
59063;BME280;44851;45.648;9.004;2023-02-03T05:27:37;99771.16;;;5.21;40.88
59063;BME280;44851;45.648;9.004;2023-02-03T05:30:04;99788.09;;;5.10;41.25
59063;BME280;44851;45.648;9.004;2023-02-03T05:32:29;99790.88;;;5.07;41.11
59063;BME280;44851;45.648;9.004;2023-02-03T05:34:55;99798.88;;;4.87;41.33
59063;BME280;44851;45.648;9.004;2023-02-03T05:37:20;99805.03;;;5.00;41.11
59063;BME280;44851;45.648;9.004;2023-02-03T05:39:46;99803.03;;;4.90;41.07
59063;BME280;44851;45.648;9.004;2023-02-03T05:42:11;99808.78;;;4.79;41.99
59063;BME280;44851;45.648;9.004;2023-02-03T05:44:37;99813.63;;;4.85;41.70
59063;BME280;44851;45.648;9.004;2023-02-03T05:47:02;99820.22;;;4.75;42.45
59063;BME280;44851;45.648;9.004;2023-02-03T05:49:28;99823.38;;;4.80;42.50
59063;BME280;44851;45.648;9.004;2023-02-03T05:51:54;99820.69;;;4.66;42.83
59063;BME280;44851;45.648;9.004;2023-02-03T05:54:20;99821.03;;;4.59;42.74
59063;BME280;44851;45.648;9.004;2023-02-03T05:56:45;99817.69;;;4.73;42.86
59063;BME280;44851;45.648;9.004;2023-02-03T05:59:11;99825.38;;;4.75;42.77
59063;BME280;44851;45.648;9.004;2023-02-03T06:01:36;99819.94;;;4.79;42.80
59063;BME280;44851;45.648;9.004;2023-02-03T06:04:02;99815.03;;;4.75;43.08
59063;BME280;44851;45.648;9.004;2023-02-03T06:06:29;99820.50;;;4.53;43.39
59063;BME280;44851;45.648;9.004;2023-02-03T06:09:05;99817.84;;;4.54;43.55
59063;BME280;44851;45.648;9.004;2023-02-03T06:11:32;99818.03;;;4.67;43.80
59063;BME280;44851;45.648;9.004;2023-02-03T06:13:58;99820.84;;;4.63;43.41
59063;BME280;44851;45.648;9.004;2023-02-03T06:16:27;99827.38;;;4.70;43.37
59063;BME280;44851;45.648;9.004;2023-02-03T06:18:54;99819.19;;;4.62;43.82
59063;BME280;44851;45.648;9.004;2023-02-03T06:21:23;99819.19;;;4.62;43.87
59063;BME280;44851;45.648;9.004;2023-02-03T06:23:49;99808.16;;;4.42;44.51
59063;BME280;44851;45.648;9.004;2023-02-03T06:26:14;99803.16;;;4.39;44.47
59063;BME280;44851;45.648;9.004;2023-02-03T06:28:39;99800.25;;;4.45;44.04
59063;BME280;44851;45.648;9.004;2023-02-03T06:31:05;99822.75;;;4.26;45.18
59063;BME280;44851;45.648;9.004;2023-02-03T06:33:31;99834.88;;;4.41;45.12
59063;BME280;44851;45.648;9.004;2023-02-03T06:35:57;99842.13;;;4.35;45.29
59063;BME280;44851;45.648;9.004;2023-02-03T06:38:23;99852.19;;;4.39;45.57
59063;BME280;44851;45.648;9.004;2023-02-03T06:40:49;99845.56;;;4.18;45.52
59063;BME280;44851;45.648;9.004;2023-02-03T06:43:14;99840.72;;;4.12;46.09
59063;BME280;44851;45.648;9.004;2023-02-03T06:45:41;99847.44;;;4.14;45.64
59063;BME280;44851;45.648;9.004;2023-02-03T06:48:08;99843.06;;;4.16;46.41
59063;BME280;44851;45.648;9.004;2023-02-03T06:50:34;99851.22;;;4.24;46.28
59063;BME280;44851;45.648;9.004;2023-02-03T06:53:00;99852.25;;;4.22;46.79
59063;BME280;44851;45.648;9.004;2023-02-03T06:55:25;99857.03;;;4.12;46.74
59063;BME280;44851;45.648;9.004;2023-02-03T06:57:50;99855.13;;;3.98;47.01
59063;BME280;44851;45.648;9.004;2023-02-03T07:00:17;99855.72;;;4.03;47.22
59063;BME280;44851;45.648;9.004;2023-02-03T07:02:43;99860.66;;;4.08;47.28
59063;BME280;44851;45.648;9.004;2023-02-03T07:05:08;99874.25;;;4.12;47.78
59063;BME280;44851;45.648;9.004;2023-02-03T07:07:34;99877.66;;;4.12;47.54
59063;BME280;44851;45.648;9.004;2023-02-03T07:10:01;99887.44;;;4.23;47.73
59063;BME280;44851;45.648;9.004;2023-02-03T07:12:26;99877.28;;;4.37;47.20
59063;BME280;44851;45.648;9.004;2023-02-03T07:14:52;99894.88;;;4.29;47.63
59063;BME280;44851;45.648;9.004;2023-02-03T07:17:17;99885.91;;;4.36;47.57
59063;BME280;44851;45.648;9.004;2023-02-03T07:19:43;99879.84;;;4.37;47.46
59063;BME280;44851;45.648;9.004;2023-02-03T07:22:11;99882.13;;;4.43;46.98
59063;BME280;44851;45.648;9.004;2023-02-03T07:24:37;99885.91;;;4.36;47.24
59063;BME280;44851;45.648;9.004;2023-02-03T07:27:02;99888.56;;;4.35;47.35
59063;BME280;44851;45.648;9.004;2023-02-03T07:29:28;99885.44;;;4.45;47.45
59063;BME280;44851;45.648;9.004;2023-02-03T07:31:54;99899.56;;;4.38;47.49
59063;BME280;44851;45.648;9.004;2023-02-03T07:34:19;99892.00;;;4.18;47.44
59063;BME280;44851;45.648;9.004;2023-02-03T07:36:44;99906.25;;;4.25;47.55
59063;BME280;44851;45.648;9.004;2023-02-03T07:39:10;99912.34;;;4.24;47.52
59063;BME280;44851;45.648;9.004;2023-02-03T07:41:36;99918.00;;;4.30;47.50
59063;BME280;44851;45.648;9.004;2023-02-03T07:44:01;99901.56;;;4.33;47.52
59063;BME280;44851;45.648;9.004;2023-02-03T07:46:27;99908.06;;;4.40;47.48
59063;BME280;44851;45.648;9.004;2023-02-03T07:48:52;99923.72;;;4.37;47.34
59063;BME280;44851;45.648;9.004;2023-02-03T07:51:18;99941.47;;;4.26;46.89
59063;BME280;44851;45.648;9.004;2023-02-03T07:53:44;99941.19;;;4.32;46.14
59063;BME280;44851;45.648;9.004;2023-02-03T07:56:09;99929.63;;;4.39;47.10
59063;BME280;44851;45.648;9.004;2023-02-03T07:58:36;99928.09;;;4.52;46.98
59063;BME280;44851;45.648;9.004;2023-02-03T08:01:12;99939.03;;;4.40;46.12
59063;BME280;44851;45.648;9.004;2023-02-03T08:03:38;99944.25;;;4.56;46.07
59063;BME280;44851;45.648;9.004;2023-02-03T08:06:03;99946.00;;;4.55;47.20
59063;BME280;44851;45.648;9.004;2023-02-03T08:08:30;99942.66;;;4.71;47.47
59063;BME280;44851;45.648;9.004;2023-02-03T08:10:55;99936.66;;;4.70;46.63
59063;BME280;44851;45.648;9.004;2023-02-03T08:13:21;99918.75;;;4.83;46.22
59063;BME280;44851;45.648;9.004;2023-02-03T08:15:47;99915.84;;;4.89;46.43
59063;BME280;44851;45.648;9.004;2023-02-03T08:18:12;99914.53;;;4.98;45.93
59063;BME280;44851;45.648;9.004;2023-02-03T08:20:38;99913.34;;;4.88;47.15
59063;BME280;44851;45.648;9.004;2023-02-03T08:23:04;99913.38;;;5.03;47.52
59063;BME280;44851;45.648;9.004;2023-02-03T08:25:30;99918.47;;;5.05;47.32
59063;BME280;44851;45.648;9.004;2023-02-03T08:27:56;99907.47;;;5.01;47.80
59063;BME280;44851;45.648;9.004;2023-02-03T08:30:22;99913.06;;;5.25;47.54
59063;BME280;44851;45.648;9.004;2023-02-03T08:32:47;99927.84;;;5.23;47.51
59063;BME280;44851;45.648;9.004;2023-02-03T08:35:13;99924.56;;;5.51;47.04
59063;BME280;44851;45.648;9.004;2023-02-03T08:37:39;99938.91;;;5.41;47.42
59063;BME280;44851;45.648;9.004;2023-02-03T08:40:05;99930.06;;;5.61;46.90
59063;BME280;44851;45.648;9.004;2023-02-03T08:42:30;99922.38;;;5.59;48.73
59063;BME280;44851;45.648;9.004;2023-02-03T08:44:56;99920.47;;;5.63;48.96
59063;BME280;44851;45.648;9.004;2023-02-03T08:47:22;99923.22;;;5.76;49.21
59063;BME280;44851;45.648;9.004;2023-02-03T08:49:47;99917.97;;;6.07;46.68
59063;BME280;44851;45.648;9.004;2023-02-03T08:52:13;99921.53;;;6.21;47.38
59063;BME280;44851;45.648;9.004;2023-02-03T08:54:39;99923.72;;;6.71;45.36
59063;BME280;44851;45.648;9.004;2023-02-03T08:57:05;99921.59;;;7.06;44.96
59063;BME280;44851;45.648;9.004;2023-02-03T08:59:31;99927.84;;;7.31;42.94
59063;BME280;44851;45.648;9.004;2023-02-03T09:02:01;99935.84;;;7.55;42.21
59063;BME280;44851;45.648;9.004;2023-02-03T09:04:26;99935.81;;;7.96;41.60
59063;BME280;44851;45.648;9.004;2023-02-03T09:06:52;99927.13;;;8.10;43.25
59063;BME280;44851;45.648;9.004;2023-02-03T09:09:22;99922.59;;;8.39;43.33
59063;BME280;44851;45.648;9.004;2023-02-03T09:11:47;99931.47;;;8.74;47.14
59063;BME280;44851;45.648;9.004;2023-02-03T09:14:13;99932.16;;;9.02;44.37
59063;BME280;44851;45.648;9.004;2023-02-03T09:16:39;99934.88;;;9.50;46.58
59063;BME280;44851;45.648;9.004;2023-02-03T09:19:04;99933.53;;;9.44;41.00
59063;BME280;44851;45.648;9.004;2023-02-03T09:21:30;99930.69;;;9.60;40.36
59063;BME280;44851;45.648;9.004;2023-02-03T09:23:59;99946.00;;;9.52;40.54
59063;BME280;44851;45.648;9.004;2023-02-03T09:26:25;99963.84;;;9.93;40.07
59063;BME280;44851;45.648;9.004;2023-02-03T09:28:51;99967.13;;;10.08;42.65
59063;BME280;44851;45.648;9.004;2023-02-03T09:31:17;99966.69;;;10.25;43.67
59063;BME280;44851;45.648;9.004;2023-02-03T09:33:44;99954.78;;;10.10;39.24
59063;BME280;44851;45.648;9.004;2023-02-03T09:36:10;99958.38;;;10.20;38.94
59063;BME280;44851;45.648;9.004;2023-02-03T09:38:36;99951.66;;;10.75;41.22
59063;BME280;44851;45.648;9.004;2023-02-03T09:46:26;99937.09;;;11.61;36.08
59063;BME280;44851;45.648;9.004;2023-02-03T09:48:58;99943.81;;;11.86;37.21
59063;BME280;44851;45.648;9.004;2023-02-03T09:51:33;99955.34;;;11.83;36.36
59063;BME280;44851;45.648;9.004;2023-02-03T09:54:05;99958.66;;;11.85;35.55
59063;BME280;44851;45.648;9.004;2023-02-03T09:56:33;99957.97;;;12.15;37.77
59063;BME280;44851;45.648;9.004;2023-02-03T09:59:00;99964.31;;;12.02;35.01
59063;BME280;44851;45.648;9.004;2023-02-03T10:01:38;99968.38;;;11.95;35.27
59063;BME280;44851;45.648;9.004;2023-02-03T10:17:37;99959.56;;;12.07;35.31
59063;BME280;44851;45.648;9.004;2023-02-03T10:22:38;99953.97;;;12.32;36.47
59063;BME280;44851;45.648;9.004;2023-02-03T10:28:22;99947.31;;;12.70;35.16
59063;BME280;44851;45.648;9.004;2023-02-03T10:30:52;99937.81;;;13.00;36.88
59063;BME280;44851;45.648;9.004;2023-02-03T10:33:22;99936.41;;;13.16;33.68
59063;BME280;44851;45.648;9.004;2023-02-03T10:41:15;99925.28;;;13.34;34.16
59063;BME280;44851;45.648;9.004;2023-02-03T10:43:42;99938.19;;;13.26;32.14
59063;BME280;44851;45.648;9.004;2023-02-03T10:46:28;99939.69;;;13.59;33.72
59063;BME280;44851;45.648;9.004;2023-02-03T10:48:54;99934.97;;;13.62;32.06
59063;BME280;44851;45.648;9.004;2023-02-03T10:51:26;99942.44;;;13.86;33.61
59063;BME280;44851;45.648;9.004;2023-02-03T10:53:54;99944.91;;;13.59;32.04
59063;BME280;44851;45.648;9.004;2023-02-03T10:56:31;99944.38;;;13.74;31.86
59063;BME280;44851;45.648;9.004;2023-02-03T10:59:00;99946.59;;;13.98;32.64
59063;BME280;44851;45.648;9.004;2023-02-03T11:01:37;99934.03;;;13.92;31.78
59063;BME280;44851;45.648;9.004;2023-02-03T11:04:04;99927.81;;;14.13;33.04
59063;BME280;44851;45.648;9.004;2023-02-03T11:06:31;99923.16;;;14.07;32.34
59063;BME280;44851;45.648;9.004;2023-02-03T11:08:58;99922.28;;;14.16;31.71
59063;BME280;44851;45.648;9.004;2023-02-03T11:11:31;99921.72;;;14.41;32.19
59063;BME280;44851;45.648;9.004;2023-02-03T11:16:26;99913.13;;;14.59;31.18
59063;BME280;44851;45.648;9.004;2023-02-03T11:19:19;99907.88;;;14.59;31.93
59063;BME280;44851;45.648;9.004;2023-02-03T11:21:48;99901.31;;;14.82;34.14
59063;BME280;44851;45.648;9.004;2023-02-03T11:24:37;99893.56;;;14.81;33.07
59063;BME280;44851;45.648;9.004;2023-02-03T11:27:13;99888.09;;;15.01;32.36
59063;BME280;44851;45.648;9.004;2023-02-03T11:29:45;99879.81;;;14.96;30.52
59063;BME280;44851;45.648;9.004;2023-02-03T11:32:32;99873.41;;;15.09;30.78
59063;BME280;44851;45.648;9.004;2023-02-03T11:35:01;99865.53;;;15.09;30.37
59063;BME280;44851;45.648;9.004;2023-02-03T11:37:41;99857.53;;;14.83;31.18
59063;BME280;44851;45.648;9.004;2023-02-03T11:42:33;99845.59;;;15.16;31.27
59063;BME280;44851;45.648;9.004;2023-02-03T11:47:45;99847.78;;;15.20;30.39
59063;BME280;44851;45.648;9.004;2023-02-03T11:54:05;99835.66;;;15.37;30.88
59063;BME280;44851;45.648;9.004;2023-02-03T11:56:53;99830.41;;;15.37;30.94
59063;BME280;44851;45.648;9.004;2023-02-03T12:07:39;99818.47;;;15.25;31.38
59063;BME280;44851;45.648;9.004;2023-02-03T12:10:30;99815.38;;;15.47;31.37
59063;BME280;44851;45.648;9.004;2023-02-03T12:16:10;99794.91;;;15.51;30.14
59063;BME280;44851;45.648;9.004;2023-02-03T12:24:48;99778.91;;;15.88;30.27
59063;BME280;44851;45.648;9.004;2023-02-03T12:29:58;99754.63;;;15.94;28.49
59063;BME280;44851;45.648;9.004;2023-02-03T12:32:50;99745.75;;;15.95;27.66
59063;BME280;44851;45.648;9.004;2023-02-03T12:35:24;99744.19;;;16.11;27.51
59063;BME280;44851;45.648;9.004;2023-02-03T12:38:13;99727.13;;;16.15;28.21
59063;BME280;44851;45.648;9.004;2023-02-03T12:40:49;99730.75;;;16.48;28.45
59063;BME280;44851;45.648;9.004;2023-02-03T12:49:03;99728.00;;;16.66;27.58
59063;BME280;44851;45.648;9.004;2023-02-03T12:51:41;99712.50;;;16.54;26.75
59063;BME280;44851;45.648;9.004;2023-02-03T12:54:33;99706.38;;;16.38;26.86
59063;BME280;44851;45.648;9.004;2023-02-03T12:57:40;99708.81;;;16.31;25.81
59063;BME280;44851;45.648;9.004;2023-02-03T13:00:39;99711.13;;;16.34;26.95
59063;BME280;44851;45.648;9.004;2023-02-03T13:06:09;99701.97;;;16.54;27.25
59063;BME280;44851;45.648;9.004;2023-02-03T13:08:40;99704.59;;;16.54;27.16
59063;BME280;44851;45.648;9.004;2023-02-03T13:14:13;99709.53;;;16.49;26.53
59063;BME280;44851;45.648;9.004;2023-02-03T13:16:46;99709.22;;;16.60;27.52
59063;BME280;44851;45.648;9.004;2023-02-03T13:19:19;99703.78;;;16.54;26.85
59063;BME280;44851;45.648;9.004;2023-02-03T13:21:48;99698.69;;;16.60;26.19
59063;BME280;44851;45.648;9.004;2023-02-03T13:24:14;99702.28;;;16.51;26.44
59063;BME280;44851;45.648;9.004;2023-02-03T13:32:31;99685.22;;;16.64;26.37
59063;BME280;44851;45.648;9.004;2023-02-03T13:35:25;99675.69;;;16.63;27.76
59063;BME280;44851;45.648;9.004;2023-02-03T13:41:10;99670.22;;;16.14;27.03
59063;BME280;44851;45.648;9.004;2023-02-03T13:43:45;99660.94;;;16.27;27.36
59063;BME280;44851;45.648;9.004;2023-02-03T13:46:25;99664.97;;;16.14;27.41
59063;BME280;44851;45.648;9.004;2023-02-03T13:48:52;99658.50;;;16.26;27.94
59063;BME280;44851;45.648;9.004;2023-02-03T13:51:24;99659.13;;;16.20;28.30
59063;BME280;44851;45.648;9.004;2023-02-03T13:53:51;99653.22;;;16.26;29.63
59063;BME280;44851;45.648;9.004;2023-02-03T13:56:24;99646.00;;;16.28;28.68
59063;BME280;44851;45.648;9.004;2023-02-03T13:59:26;99647.25;;;16.16;28.18
59063;BME280;44851;45.648;9.004;2023-02-03T14:07:38;99638.38;;;16.17;28.93
59063;BME280;44851;45.648;9.004;2023-02-03T14:22:57;99630.75;;;15.63;29.62
59063;BME280;44851;45.648;9.004;2023-02-03T14:25:23;99634.84;;;15.66;29.62
59063;BME280;44851;45.648;9.004;2023-02-03T14:28:02;99623.31;;;15.50;29.42
59063;BME280;44851;45.648;9.004;2023-02-03T14:30:29;99629.84;;;15.46;29.24
59063;BME280;44851;45.648;9.004;2023-02-03T14:33:00;99618.34;;;15.47;29.48
59063;BME280;44851;45.648;9.004;2023-02-03T14:35:39;99615.00;;;15.37;29.23
59063;BME280;44851;45.648;9.004;2023-02-03T14:38:09;99617.94;;;15.34;29.25
59063;BME280;44851;45.648;9.004;2023-02-03T15:02:25;99613.28;;;14.84;28.28
59063;BME280;44851;45.648;9.004;2023-02-03T15:10:09;99607.66;;;14.79;27.79
59063;BME280;44851;45.648;9.004;2023-02-03T15:12:36;99611.44;;;14.76;28.98
59063;BME280;44851;45.648;9.004;2023-02-03T15:15:29;99602.50;;;14.51;30.14
59063;BME280;44851;45.648;9.004;2023-02-03T15:17:56;99607.47;;;14.55;30.88
59063;BME280;44851;45.648;9.004;2023-02-03T15:20:34;99602.34;;;14.53;31.10
59063;BME280;44851;45.648;9.004;2023-02-03T15:23:01;99597.88;;;14.45;29.71
59063;BME280;44851;45.648;9.004;2023-02-03T15:25:29;99607.75;;;14.51;30.14
59063;BME280;44851;45.648;9.004;2023-02-03T15:28:12;99603.78;;;14.30;29.77
59063;BME280;44851;45.648;9.004;2023-02-03T15:30:41;99593.88;;;14.41;29.02
59063;BME280;44851;45.648;9.004;2023-02-03T15:33:10;99594.63;;;14.34;28.95
59063;BME280;44851;45.648;9.004;2023-02-03T15:35:39;99586.91;;;14.32;29.51
59063;BME280;44851;45.648;9.004;2023-02-03T15:38:13;99598.53;;;14.30;29.75
59063;BME280;44851;45.648;9.004;2023-02-03T15:40:44;99598.56;;;14.20;30.52
59063;BME280;44851;45.648;9.004;2023-02-03T15:45:54;99595.09;;;14.29;30.20
59063;BME280;44851;45.648;9.004;2023-02-03T15:48:42;99592.22;;;13.95;31.07
59063;BME280;44851;45.648;9.004;2023-02-03T15:51:13;99596.25;;;13.89;31.48
59063;BME280;44851;45.648;9.004;2023-02-03T15:56:47;99597.41;;;13.77;31.06